createdAt,value
2019-02-28T00:01:50.001Z,6.50
2019-02-28T00:04:20.553Z,6.40
2019-02-28T00:06:51.266Z,6.40
2019-02-28T00:09:21.347Z,6.30
2019-02-28T00:11:52.029Z,6.20
2019-02-28T00:14:22.105Z,6.20
2019-02-28T00:16:52.152Z,6.10
2019-02-28T00:19:24.600Z,5.90
2019-02-28T00:21:55.191Z,5.90
2019-02-28T00:24:27.131Z,6.00
2019-02-28T00:26:57.737Z,6.00
2019-02-28T00:29:28.089Z,6.00
2019-02-28T00:31:58.253Z,6.00
2019-02-28T00:34:28.342Z,6.00
2019-02-28T00:36:58.873Z,6.00
2019-02-28T00:39:31.403Z,6.00
2019-02-28T00:42:01.748Z,5.90
2019-02-28T00:44:31.820Z,5.90
2019-02-28T00:47:01.965Z,5.80
2019-02-28T00:49:32.335Z,5.80
2019-02-28T00:52:02.712Z,5.80
2019-02-28T00:54:33.236Z,5.80
2019-02-28T00:57:03.272Z,5.90
2019-02-28T00:59:33.487Z,5.80
2019-02-28T01:02:03.857Z,5.80
2019-02-28T01:04:33.924Z,5.70
2019-02-28T01:07:04.089Z,5.70
2019-02-28T01:09:34.420Z,5.70
2019-02-28T01:12:05.256Z,5.70
2019-02-28T01:14:35.818Z,5.70
2019-02-28T01:17:06.744Z,5.60
2019-02-28T01:19:36.819Z,5.60
2019-02-28T01:22:06.855Z,5.40
2019-02-28T01:24:37.144Z,5.20
2019-02-28T01:27:07.412Z,4.90
2019-02-28T01:29:38.143Z,4.80
2019-02-28T01:32:08.265Z,4.80
2019-02-28T01:34:38.624Z,5.00
2019-02-28T01:37:09.221Z,5.10
2019-02-28T01:39:39.304Z,5.10
2019-02-28T01:42:09.404Z,5.10
2019-02-28T01:44:39.680Z,5.10
2019-02-28T01:47:09.951Z,5.10
2019-02-28T01:49:40.636Z,5.10
2019-02-28T01:52:10.822Z,5.00
2019-02-28T01:54:41.697Z,5.00
2019-02-28T01:57:12.293Z,5.00
2019-02-28T01:59:43.616Z,5.00
2019-02-28T02:02:13.876Z,5.00
2019-02-28T02:04:45.761Z,5.00
2019-02-28T02:07:16.045Z,5.00
2019-02-28T02:09:46.988Z,5.10
2019-02-28T02:12:18.388Z,5.10
2019-02-28T02:14:49.104Z,5.30
2019-02-28T02:17:19.151Z,5.30
2019-02-28T02:19:52.125Z,5.40
2019-02-28T02:22:21.502Z,5.50
2019-02-28T02:24:51.576Z,5.60
2019-02-28T02:27:21.609Z,5.70
2019-02-28T02:29:51.755Z,5.80
2019-02-28T02:32:22.242Z,5.90
2019-02-28T02:34:52.537Z,6.00
2019-02-28T02:37:26.332Z,6.10
2019-02-28T02:39:54.906Z,6.20
2019-02-28T02:42:24.999Z,6.30
2019-02-28T02:44:55.785Z,6.50
2019-02-28T02:47:31.347Z,6.50
2019-02-28T02:49:58.251Z,6.50
2019-02-28T02:52:30.375Z,6.60
2019-02-28T02:55:01.159Z,6.60
2019-02-28T02:57:31.186Z,6.60
2019-02-28T03:00:01.602Z,6.70
2019-02-28T03:02:33.275Z,6.70
2019-02-28T03:05:04.374Z,6.80
2019-02-28T03:07:34.962Z,6.70
2019-02-28T03:10:05.465Z,6.70
2019-02-28T03:12:36.190Z,6.70
2019-02-28T03:15:06.681Z,6.80
2019-02-28T03:17:37.358Z,6.70
2019-02-28T03:20:08.886Z,6.70
2019-02-28T03:22:39.325Z,6.80
2019-02-28T03:25:10.495Z,6.80
2019-02-28T03:27:40.532Z,6.70
2019-02-28T03:30:26.039Z,6.80
2019-02-28T03:32:45.576Z,6.80
2019-02-28T03:35:16.303Z,6.80
2019-02-28T03:37:46.555Z,6.90
2019-02-28T03:40:17.693Z,6.90
2019-02-28T03:42:48.091Z,6.90
2019-02-28T03:45:18.730Z,6.90
2019-02-28T03:47:48.809Z,6.90
2019-02-28T03:50:21.897Z,6.90
2019-02-28T03:52:50.692Z,7.00
2019-02-28T03:55:21.017Z,7.00
2019-02-28T03:57:51.662Z,6.90
2019-02-28T04:00:21.809Z,6.90
2019-02-28T04:02:56.649Z,6.90
2019-02-28T04:05:28.105Z,6.90
2019-02-28T04:07:55.693Z,6.80
2019-02-28T04:10:25.738Z,6.80
2019-02-28T04:12:56.002Z,6.70
2019-02-28T04:15:27.421Z,6.70
2019-02-28T04:17:57.691Z,6.60
2019-02-28T04:20:27.889Z,6.60
2019-02-28T04:22:59.843Z,6.70
2019-02-28T04:25:29.977Z,6.70
2019-02-28T04:28:00.943Z,6.60
2019-02-28T04:30:34.300Z,6.60
2019-02-28T04:33:04.317Z,6.50
2019-02-28T04:35:34.397Z,6.40
2019-02-28T04:38:04.424Z,6.40
2019-02-28T04:40:34.780Z,6.30
2019-02-28T04:43:07.286Z,6.30
2019-02-28T04:45:37.015Z,6.30
2019-02-28T04:48:07.399Z,6.30
2019-02-28T04:50:37.783Z,6.30
2019-02-28T04:53:08.103Z,6.30
2019-02-28T04:55:38.183Z,6.30
2019-02-28T04:58:08.545Z,6.40
2019-02-28T05:00:38.941Z,6.40
2019-02-28T05:03:09.045Z,6.40
2019-02-28T05:05:39.424Z,6.40
2019-02-28T05:08:09.525Z,6.40
2019-02-28T05:10:40.636Z,6.40
2019-02-28T05:13:14.140Z,6.30
2019-02-28T05:15:43.488Z,6.30
2019-02-28T05:18:14.548Z,6.30
2019-02-28T05:20:45.911Z,6.30
2019-02-28T05:23:16.464Z,6.30
2019-02-28T05:25:49.081Z,6.30
2019-02-28T05:28:18.934Z,6.40
2019-02-28T05:30:50.175Z,6.40
2019-02-28T05:33:22.103Z,6.40
2019-02-28T05:35:52.279Z,6.40
2019-02-28T05:38:22.575Z,6.40
2019-02-28T05:40:55.435Z,6.40
2019-02-28T05:43:25.229Z,6.40
2019-02-28T05:45:55.669Z,6.40
2019-02-28T05:48:25.784Z,6.40
2019-02-28T05:50:56.620Z,6.30
2019-02-28T05:53:26.703Z,6.30
2019-02-28T05:55:59.744Z,6.30
2019-02-28T05:58:28.863Z,6.40
2019-02-28T06:00:59.011Z,6.40
2019-02-28T06:03:30.390Z,6.40
2019-02-28T06:06:00.536Z,6.40
2019-02-28T06:08:31.349Z,6.30
2019-02-28T06:11:01.672Z,6.30
2019-02-28T06:13:31.732Z,6.30
2019-02-28T06:16:01.818Z,6.30
2019-02-28T06:18:33.445Z,6.40
2019-02-28T06:21:03.992Z,6.50
2019-02-28T06:23:34.037Z,6.50
2019-02-28T06:26:04.546Z,6.50
2019-02-28T06:28:34.589Z,6.60
2019-02-28T06:31:05.288Z,6.60
2019-02-28T06:33:35.656Z,6.60
2019-02-28T06:36:05.740Z,6.70
2019-02-28T06:38:35.769Z,6.80
2019-02-28T06:41:07.594Z,6.90
2019-02-28T06:43:38.246Z,7.00
2019-02-28T06:46:09.381Z,7.10
2019-02-28T06:48:40.724Z,7.10
2019-02-28T06:51:10.817Z,7.20
2019-02-28T06:53:42.096Z,7.10
2019-02-28T06:56:12.507Z,7.20
2019-02-28T06:58:42.856Z,7.20
2019-02-28T07:01:12.945Z,7.30
2019-02-28T07:03:43.276Z,7.40
2019-02-28T07:06:13.572Z,7.50
2019-02-28T07:08:43.990Z,7.60
2019-02-28T07:11:14.013Z,7.60
2019-02-28T07:13:44.336Z,7.70
2019-02-28T07:16:14.777Z,7.70
2019-02-28T07:18:44.952Z,7.90
2019-02-28T07:21:15.463Z,8.00
2019-02-28T07:23:45.536Z,8.00
2019-02-28T07:26:18.701Z,8.00
2019-02-28T07:28:47.815Z,8.20
2019-02-28T07:31:18.426Z,8.30
2019-02-28T07:33:48.750Z,8.40
2019-02-28T07:36:18.792Z,8.30
2019-02-28T07:38:48.892Z,8.30
2019-02-28T07:41:20.339Z,8.30
2019-02-28T07:43:50.973Z,8.50
2019-02-28T07:46:22.485Z,8.50
2019-02-28T07:48:52.764Z,8.50
2019-02-28T07:51:26.098Z,8.60
2019-02-28T07:53:55.357Z,8.70
2019-02-28T07:56:25.447Z,8.60
2019-02-28T07:58:55.859Z,8.60
2019-02-28T08:01:27.737Z,8.70
2019-02-28T08:03:57.692Z,8.80
2019-02-28T08:06:27.780Z,9.00
2019-02-28T08:08:57.893Z,9.10
2019-02-28T08:11:29.773Z,9.00
2019-02-28T08:14:00.384Z,9.10
2019-02-28T08:16:33.883Z,9.00
2019-02-28T08:19:02.486Z,9.00
2019-02-28T08:21:32.858Z,9.10
2019-02-28T08:24:05.396Z,9.20
2019-02-28T08:26:34.680Z,9.30
2019-02-28T08:29:07.816Z,9.30
2019-02-28T08:31:37.375Z,9.40
2019-02-28T08:34:07.707Z,9.50
2019-02-28T08:36:37.811Z,9.50
2019-02-28T08:39:16.169Z,9.60
2019-02-28T08:41:46.530Z,9.70
2019-02-28T08:44:22.465Z,9.70
2019-02-28T08:46:48.852Z,9.80
2019-02-28T08:49:19.148Z,9.90
2019-02-28T08:51:49.219Z,9.90
2019-02-28T08:54:19.257Z,10.00
2019-02-28T08:56:50.624Z,10.10
2019-02-28T08:59:22.714Z,10.00
2019-02-28T09:01:52.909Z,10.00
2019-02-28T09:04:22.948Z,10.10
2019-02-28T09:06:53.490Z,10.10
2019-02-28T09:09:23.777Z,10.20
2019-02-28T09:11:57.921Z,10.30
2019-02-28T09:14:25.831Z,10.50
2019-02-28T09:16:58.501Z,10.60
2019-02-28T09:19:28.791Z,10.50
2019-02-28T09:21:58.950Z,10.60
2019-02-28T09:24:29.227Z,10.70
2019-02-28T09:27:01.323Z,10.70
2019-02-28T09:29:31.947Z,10.70
2019-02-28T09:32:01.998Z,10.90
2019-02-28T09:34:32.080Z,10.90
2019-02-28T09:37:02.621Z,10.90
2019-02-28T09:39:33.137Z,10.80
2019-02-28T09:42:03.472Z,10.70
2019-02-28T09:44:34.472Z,10.60
2019-02-28T09:47:05.105Z,10.80
2019-02-28T09:49:36.104Z,10.80
2019-02-28T09:52:07.229Z,10.80
2019-02-28T09:54:37.408Z,10.80
2019-02-28T09:57:07.497Z,10.70
2019-02-28T09:59:38.647Z,10.70
2019-02-28T10:02:09.616Z,10.60
2019-02-28T10:04:40.057Z,10.70
2019-02-28T10:07:10.678Z,10.80
2019-02-28T10:09:44.265Z,11.00
2019-02-28T10:12:14.399Z,11.10
2019-02-28T10:14:44.440Z,11.10
2019-02-28T10:17:16.049Z,10.90
2019-02-28T10:19:51.961Z,10.90
2019-02-28T10:22:18.209Z,11.20
2019-02-28T10:24:48.813Z,11.20
2019-02-28T10:27:19.136Z,11.00
2019-02-28T10:29:49.261Z,10.90
2019-02-28T10:32:20.408Z,11.10
2019-02-28T10:34:50.739Z,11.20
2019-02-28T10:37:22.855Z,11.60
2019-02-28T10:39:53.112Z,11.50
2019-02-28T10:42:23.209Z,11.50
2019-02-28T10:44:53.297Z,11.60
2019-02-28T10:47:28.129Z,11.60
2019-02-28T10:49:58.276Z,11.80
2019-02-28T10:52:30.558Z,11.90
2019-02-28T10:54:59.976Z,11.90
2019-02-28T10:57:30.521Z,11.80
2019-02-28T11:00:00.885Z,11.50
2019-02-28T11:02:31.824Z,11.80
2019-02-28T11:05:02.089Z,12.00
2019-02-28T11:07:37.833Z,12.20
2019-02-28T11:10:06.519Z,12.00
2019-02-28T11:12:38.632Z,11.90
2019-02-28T11:15:10.410Z,11.90
2019-02-28T11:17:41.944Z,11.60
2019-02-28T11:20:21.886Z,11.60
2019-02-28T11:22:45.976Z,11.90
2019-02-28T11:25:17.323Z,12.00
2019-02-28T11:27:47.815Z,12.00
2019-02-28T11:30:19.256Z,11.90
2019-02-28T11:32:49.849Z,11.90
2019-02-28T11:35:23.211Z,11.80
2019-02-28T11:37:52.668Z,12.00
2019-02-28T11:40:24.341Z,12.10
2019-02-28T11:42:54.528Z,12.20
2019-02-28T11:45:25.701Z,12.10
2019-02-28T11:47:57.159Z,11.80
2019-02-28T11:50:27.263Z,11.90
2019-02-28T11:53:03.306Z,12.20
2019-02-28T11:55:29.567Z,12.40
2019-02-28T11:58:00.079Z,12.30
2019-02-28T12:00:32.566Z,12.00
2019-02-28T12:03:02.862Z,12.00
2019-02-28T12:05:32.951Z,12.10
2019-02-28T12:08:09.271Z,12.20
2019-02-28T12:10:35.704Z,12.50
2019-02-28T12:13:06.025Z,12.70
2019-02-28T12:15:37.958Z,12.80
2019-02-28T12:18:09.022Z,13.00
2019-02-28T12:20:39.065Z,13.00
2019-02-28T12:23:09.765Z,12.60
2019-02-28T12:25:42.683Z,12.50
2019-02-28T12:28:12.185Z,12.10
2019-02-28T12:30:42.404Z,12.10
2019-02-28T12:33:15.435Z,12.10
2019-02-28T12:35:44.684Z,12.20
2019-02-28T12:38:15.516Z,12.30
2019-02-28T12:40:47.204Z,12.30
2019-02-28T12:43:17.375Z,12.40
2019-02-28T12:45:47.692Z,12.60
2019-02-28T12:48:18.278Z,12.50
2019-02-28T12:50:48.372Z,12.40
2019-02-28T12:53:24.264Z,12.50
2019-02-28T12:55:50.842Z,12.50
2019-02-28T12:58:21.208Z,12.40
2019-02-28T13:00:51.830Z,12.40
2019-02-28T13:03:22.541Z,12.50
2019-02-28T13:05:52.700Z,12.70
2019-02-28T13:08:24.041Z,12.90
2019-02-28T13:10:54.395Z,12.80
2019-02-28T13:13:27.438Z,13.00
2019-02-28T13:15:56.645Z,13.00
2019-02-28T13:18:26.766Z,12.70
2019-02-28T13:20:57.284Z,12.60
2019-02-28T13:23:27.337Z,12.70
2019-02-28T13:26:00.008Z,12.60
2019-02-28T13:28:29.419Z,12.60
2019-02-28T13:30:59.949Z,12.60
2019-02-28T13:33:30.400Z,12.70
2019-02-28T13:36:01.160Z,12.50
2019-02-28T13:38:31.208Z,12.50
2019-02-28T13:41:01.820Z,12.40
2019-02-28T13:43:32.416Z,12.30
2019-02-28T13:46:02.505Z,12.20
2019-02-28T13:48:33.749Z,12.30
2019-02-28T13:51:08.448Z,12.30
2019-02-28T13:53:38.229Z,12.50
2019-02-28T13:56:08.413Z,12.50
2019-02-28T13:58:38.773Z,12.30
2019-02-28T14:01:09.429Z,12.50
2019-02-28T14:03:42.294Z,12.70
2019-02-28T14:06:18.914Z,12.90
2019-02-28T14:08:46.006Z,12.90
2019-02-28T14:11:17.391Z,12.60
2019-02-28T14:13:47.489Z,12.50
2019-02-28T14:16:17.761Z,12.40
2019-02-28T14:18:48.192Z,12.30
2019-02-28T14:21:18.223Z,12.30
2019-02-28T14:23:48.327Z,12.20
2019-02-28T14:26:19.709Z,12.10
2019-02-28T14:28:51.240Z,12.30
2019-02-28T14:31:23.416Z,12.30
2019-02-28T14:33:54.491Z,12.30
2019-02-28T14:36:25.773Z,12.00
2019-02-28T14:38:57.772Z,12.00
2019-02-28T14:41:30.888Z,11.90
2019-02-28T14:43:59.614Z,12.00
2019-02-28T14:46:29.643Z,11.90
2019-02-28T14:48:59.934Z,11.90
2019-02-28T14:51:30.250Z,11.90
2019-02-28T14:54:00.753Z,12.00
2019-02-28T14:56:31.216Z,11.90
2019-02-28T14:59:01.540Z,12.00
2019-02-28T15:01:31.893Z,12.10
2019-02-28T15:04:02.696Z,11.90
2019-02-28T15:06:33.213Z,11.90
2019-02-28T15:09:06.249Z,11.80
2019-02-28T15:11:38.198Z,11.80
2019-02-28T15:14:09.551Z,11.70
2019-02-28T15:16:40.296Z,11.80
2019-02-28T15:19:11.531Z,11.70
2019-02-28T15:21:42.699Z,11.60
2019-02-28T15:24:13.753Z,11.50
2019-02-28T15:26:45.404Z,11.50
2019-02-28T15:29:15.725Z,11.40
2019-02-28T15:31:46.006Z,11.40
2019-02-28T15:34:16.088Z,11.40
2019-02-28T15:36:46.221Z,11.30
2019-02-28T15:39:17.370Z,11.30
2019-02-28T15:41:48.680Z,11.30
2019-02-28T15:44:18.891Z,11.30
2019-02-28T15:46:48.912Z,11.20
2019-02-28T15:49:19.492Z,11.00
2019-02-28T15:51:49.765Z,10.90
2019-02-28T15:54:21.654Z,10.80
2019-02-28T15:56:51.861Z,10.70
2019-02-28T15:59:23.705Z,10.70
2019-02-28T16:01:53.963Z,10.70
2019-02-28T16:04:26.144Z,10.60
2019-02-28T16:06:58.115Z,10.50
2019-02-28T16:09:28.412Z,10.50
2019-02-28T16:11:58.829Z,10.50
2019-02-28T16:14:31.452Z,10.40
2019-02-28T16:17:03.372Z,10.40
2019-02-28T16:19:32.780Z,10.30
2019-02-28T16:22:03.807Z,10.30
2019-02-28T16:24:36.777Z,10.20
2019-02-28T16:27:06.852Z,10.00
2019-02-28T16:29:36.957Z,9.90
2019-02-28T16:32:07.780Z,9.80
2019-02-28T16:34:38.847Z,9.80
2019-02-28T16:37:09.793Z,9.80
2019-02-28T16:39:39.880Z,9.70
2019-02-28T16:42:11.554Z,9.80
2019-02-28T16:44:42.181Z,9.70
2019-02-28T16:47:12.284Z,9.60
2019-02-28T16:49:44.461Z,9.50
2019-02-28T16:52:14.858Z,9.50
2019-02-28T16:54:45.125Z,9.50
2019-02-28T16:57:15.233Z,9.40
2019-02-28T16:59:45.632Z,9.30
2019-02-28T17:02:15.926Z,9.30
2019-02-28T17:04:48.647Z,9.10
2019-02-28T17:07:19.346Z,9.00
2019-02-28T17:09:50.789Z,8.90
2019-02-28T17:12:35.096Z,8.90
2019-02-28T17:15:11.197Z,8.80
2019-02-28T17:17:55.808Z,8.80
2019-02-28T17:20:26.113Z,8.80
2019-02-28T17:22:58.643Z,8.60
2019-02-28T17:25:29.171Z,8.50
2019-02-28T17:28:18.384Z,8.40
2019-02-28T17:31:22.533Z,8.30
2019-02-28T17:33:53.602Z,8.30
2019-02-28T17:36:23.732Z,8.30
2019-02-28T17:38:54.442Z,8.20
2019-02-28T17:41:24.495Z,8.20
2019-02-28T17:44:18.601Z,8.20
2019-02-28T17:46:53.229Z,8.00
2019-02-28T17:49:56.388Z,8.10
2019-02-28T17:52:33.690Z,8.00
2019-02-28T17:55:37.869Z,7.90
2019-02-28T17:58:28.291Z,7.80
2019-02-28T18:01:28.919Z,7.80
2019-02-28T18:04:16.913Z,7.70
2019-02-28T18:06:56.564Z,7.50
2019-02-28T18:10:14.668Z,7.40
2019-02-28T18:13:07.558Z,7.40
2019-02-28T18:15:47.033Z,7.30
2019-02-28T18:18:41.743Z,7.40
2019-02-28T18:21:51.029Z,7.30
2019-02-28T18:25:18.090Z,7.30
2019-02-28T18:28:22.580Z,7.20
2019-02-28T18:31:12.224Z,6.90
2019-02-28T18:34:02.752Z,6.80
2019-02-28T18:36:32.864Z,6.80
2019-02-28T18:39:08.022Z,6.70
2019-02-28T18:41:38.985Z,6.60
2019-02-28T18:44:10.017Z,6.50
2019-02-28T18:46:40.445Z,6.50
2019-02-28T18:49:10.518Z,6.50
2019-02-28T18:51:41.281Z,6.70
2019-02-28T18:54:11.304Z,6.70
2019-02-28T18:56:41.619Z,6.60
2019-02-28T18:59:11.905Z,6.70
2019-02-28T19:01:42.000Z,6.60
2019-02-28T19:04:12.820Z,6.40
2019-02-28T19:06:43.259Z,6.30
2019-02-28T19:09:22.659Z,6.10
2019-02-28T19:11:52.885Z,5.80
2019-02-28T19:14:22.916Z,5.60
2019-02-28T19:16:52.988Z,5.70
2019-02-28T19:19:23.069Z,5.70
2019-02-28T19:21:53.520Z,5.70
2019-02-28T19:24:23.628Z,5.80
2019-02-28T19:26:54.682Z,5.90
2019-02-28T19:29:24.728Z,5.80
2019-02-28T19:31:55.052Z,5.60
2019-02-28T19:34:25.088Z,5.60
2019-02-28T19:36:55.189Z,5.40
2019-02-28T19:39:25.481Z,5.40
2019-02-28T19:41:56.147Z,5.30
2019-02-28T19:44:27.454Z,5.30
2019-02-28T19:46:57.689Z,5.30
2019-02-28T19:49:28.248Z,5.30
2019-02-28T19:51:58.361Z,5.40
2019-02-28T19:54:28.523Z,5.30
2019-02-28T19:56:58.608Z,5.20
2019-02-28T19:59:28.864Z,5.10
2019-02-28T20:01:59.171Z,5.10
2019-02-28T20:04:29.424Z,5.10
2019-02-28T20:06:59.768Z,5.20
2019-02-28T20:09:30.284Z,5.20
2019-02-28T20:12:00.309Z,5.20
2019-02-28T20:14:30.757Z,5.20
2019-02-28T20:17:01.217Z,5.20
2019-02-28T20:19:31.593Z,5.20
2019-02-28T20:22:01.624Z,5.20
2019-02-28T20:24:31.821Z,5.20
2019-02-28T20:27:02.304Z,5.20
2019-02-28T20:29:33.001Z,5.20
2019-02-28T20:32:03.533Z,5.20
2019-02-28T20:34:33.572Z,5.30
2019-02-28T20:37:03.965Z,5.40
2019-02-28T20:39:34.422Z,5.50
2019-02-28T20:42:04.656Z,5.40
2019-02-28T20:44:35.776Z,5.30
2019-02-28T20:47:05.925Z,5.40
2019-02-28T20:49:36.297Z,5.40
2019-02-28T20:52:06.376Z,5.40
2019-02-28T20:54:36.400Z,5.30
2019-02-28T20:57:07.867Z,5.40
2019-02-28T20:59:37.924Z,5.40
2019-02-28T21:02:08.089Z,5.30
2019-02-28T21:04:38.112Z,5.20
2019-02-28T21:07:08.517Z,5.10
2019-02-28T21:09:44.923Z,5.10
2019-02-28T21:12:11.317Z,4.90
2019-02-28T21:14:41.423Z,4.90
2019-02-28T21:17:11.893Z,4.80
2019-02-28T21:19:42.255Z,4.70
2019-02-28T21:22:12.576Z,4.70
2019-02-28T21:24:42.666Z,5.00
2019-02-28T21:27:13.656Z,5.00
2019-02-28T21:29:43.921Z,4.80
2019-02-28T21:32:14.510Z,4.60
2019-02-28T21:34:45.112Z,4.60
2019-02-28T21:37:15.270Z,4.60
2019-02-28T21:39:45.353Z,4.50
2019-02-28T21:42:17.060Z,4.50
2019-02-28T21:44:47.455Z,4.60
2019-02-28T21:47:17.840Z,4.50
2019-02-28T21:49:48.405Z,4.40
2019-02-28T21:52:18.766Z,4.50
2019-02-28T21:54:49.397Z,4.50
2019-02-28T21:57:19.726Z,4.40
2019-02-28T21:59:49.988Z,4.40
2019-02-28T22:02:20.108Z,4.40
2019-02-28T22:04:50.235Z,4.40
2019-02-28T22:07:20.602Z,4.50
2019-02-28T22:09:50.704Z,4.70
2019-02-28T22:12:21.191Z,4.90
2019-02-28T22:14:51.883Z,4.90
2019-02-28T22:17:22.188Z,5.00
2019-02-28T22:19:52.469Z,5.10
2019-02-28T22:22:22.800Z,4.90
2019-02-28T22:24:55.216Z,4.70
2019-02-28T22:27:30.357Z,4.60
2019-02-28T22:30:04.944Z,4.60
2019-02-28T22:32:42.968Z,4.50
2019-02-28T22:35:44.865Z,4.50
2019-02-28T22:38:17.011Z,4.40
2019-02-28T22:40:47.664Z,4.30
2019-02-28T22:43:17.707Z,4.30
2019-02-28T22:45:48.184Z,4.30
2019-02-28T22:48:18.343Z,4.20
2019-02-28T22:50:49.096Z,4.10
2019-02-28T22:53:19.200Z,4.10
2019-02-28T22:55:49.235Z,4.00
2019-02-28T22:58:19.808Z,3.90
2019-02-28T23:01:04.855Z,3.90
2019-02-28T23:03:36.944Z,3.80
2019-02-28T23:06:07.500Z,3.90
2019-02-28T23:08:37.576Z,4.00
2019-02-28T23:11:07.978Z,4.10
2019-02-28T23:13:38.080Z,4.10
2019-02-28T23:16:08.520Z,4.10
2019-02-28T23:18:38.770Z,4.00
2019-02-28T23:21:08.808Z,4.00
2019-02-28T23:23:38.960Z,4.00
2019-02-28T23:26:14.733Z,4.10
2019-02-28T23:28:58.526Z,4.20
2019-02-28T23:32:23.673Z,4.30
2019-02-28T23:34:54.929Z,4.40
2019-02-28T23:37:25.192Z,4.40
2019-02-28T23:39:55.493Z,4.40
2019-02-28T23:42:25.969Z,4.40
2019-02-28T23:44:57.928Z,4.20
2019-02-28T23:47:28.344Z,4.10
2019-02-28T23:49:58.364Z,4.00
2019-02-28T23:52:28.686Z,4.00
2019-02-28T23:54:59.184Z,3.90
2019-02-28T23:57:29.221Z,4.00
2019-02-28T23:59:59.289Z,3.90
